»·PEaware :: N4132J KCNO-KWHP

N4132J :: KCNO-KWHP

FLIGHT INFORMATION

Flight Status: Arrived
Operator: Privately registered:
United States
More flights under this callsign
Pilot: Anonymous 2576 (2576)
Aircraft: PIPER PA-28 CHEROKEE ARCHER
(P28A)
More flights by this aircraft type
Origin: KCNO Chino
United States
Destination: KWHP Whiteman
United States
More flights between these airports :: More routes between these airports
Route: +PDZ V186 VNY
File this flight plan on PilotEdge
Remarks: Cherokee p140
Altitude:
(Current/Filed)
6,000ft
Speed:
(Current/Filed)
110kts
Departed: 10-Mar-18 04:46 PM
Arrived: 10-Mar-18 05:41 PM
Distance/Time
Traveled:
42nm/0:55
Distance/Time
To Go:
Arrived

Flight Plot

Page will automatically refresh every two minutes.

Flight plan parsing failed; only flown route is shown


Map Options




Map Legend


Flown Route
Filed Route
Departure Airport
Arrival Airport
Navaid (VOR, NDB)
Fix

Horizontal Profiles

Position Reports

Time Latitude Longitude Heading Altitude Ground
Speed
10-Mar-18 16:26 33.979514 -117.636303 121 656ft 0kts
10-Mar-18 16:27 33.979514 -117.636303 121 656ft 0kts
10-Mar-18 16:28 33.979514 -117.636303 121 656ft 0kts
10-Mar-18 16:29 33.979514 -117.636302 121 656ft 0kts
10-Mar-18 16:30 33.979514 -117.636302 121 656ft 0kts
10-Mar-18 16:31 33.979514 -117.636302 121 656ft 0kts
10-Mar-18 16:32 33.979514 -117.636302 121 656ft 0kts
10-Mar-18 16:33 33.979514 -117.636302 121 656ft 0kts
10-Mar-18 16:34 33.979513 -117.636302 121 656ft 0kts
10-Mar-18 16:35 33.979513 -117.636302 121 656ft 0kts
10-Mar-18 16:36 33.979513 -117.636302 121 656ft 0kts
10-Mar-18 16:37 33.979513 -117.636301 121 656ft 0kts
10-Mar-18 16:38 33.977780 -117.635520 202 656ft 10kts
10-Mar-18 16:39 33.977327 -117.633106 91 656ft 15kts
10-Mar-18 16:40 33.976526 -117.630992 188 656ft 0kts
10-Mar-18 16:41 33.976526 -117.630992 188 656ft 0kts
10-Mar-18 16:42 33.976526 -117.630992 188 656ft 0kts
10-Mar-18 16:43 33.976526 -117.630992 188 656ft 0kts
10-Mar-18 16:44 33.976526 -117.630992 188 656ft 0kts
10-Mar-18 16:45 33.975722 -117.639534 267 662ft 84kts
10-Mar-18 16:46 33.974074 -117.670742 249 1389ft 93kts
10-Mar-18 16:47 33.953871 -117.675005 129 2188ft 86kts
10-Mar-18 16:48 33.948301 -117.644857 94 2757ft 95kts
10-Mar-18 16:49 33.945018 -117.614513 95 3413ft 91kts
10-Mar-18 16:50 33.934768 -117.583856 109 3825ft 99kts
10-Mar-18 16:51 33.923027 -117.553087 114 4222ft 101kts
10-Mar-18 16:52 33.915431 -117.520833 77 4543ft 103kts
10-Mar-18 16:53 33.927057 -117.489203 63 4825ft 104kts
10-Mar-18 16:54 33.948926 -117.483092 306 5138ft 97kts
10-Mar-18 16:55 33.949945 -117.513331 257 5581ft 91kts
10-Mar-18 16:56 33.950562 -117.544498 280 5933ft 96kts
10-Mar-18 16:57 33.951956 -117.580240 265 5948ft 111kts
10-Mar-18 16:58 33.948818 -117.617294 275 5963ft 116kts
10-Mar-18 16:59 33.961694 -117.651633 298 6011ft 114kts
10-Mar-18 17:00 33.976086 -117.685365 291 5834ft 108kts
10-Mar-18 17:01 33.986462 -117.718395 290 5945ft 102kts
10-Mar-18 17:02 33.993677 -117.751984 278 6041ft 103kts
10-Mar-18 17:03 33.999058 -117.788225 280 5906ft 115kts
10-Mar-18 17:04 34.003593 -117.825170 276 5900ft 111kts
10-Mar-18 17:05 34.014950 -117.859224 294 5880ft 110kts
10-Mar-18 17:06 34.025080 -117.893711 287 5887ft 109kts
10-Mar-18 17:07 34.035143 -117.928410 291 5896ft 108kts
10-Mar-18 17:08 34.047668 -117.961531 304 5887ft 110kts
10-Mar-18 17:09 34.065868 -117.990423 301 5931ft 108kts
10-Mar-18 17:10 34.077382 -118.024106 283 5954ft 108kts
10-Mar-18 17:11 34.081845 -118.060127 276 5972ft 108kts
10-Mar-18 17:12 34.091297 -118.094763 291 5987ft 109kts
10-Mar-18 17:13 34.100499 -118.129420 286 6006ft 109kts
10-Mar-18 17:14 34.109808 -118.164481 296 5996ft 107kts
10-Mar-18 17:15 34.124029 -118.196694 300 5976ft 110kts
10-Mar-18 17:16 34.139500 -118.228064 297 6004ft 109kts
10-Mar-18 17:17 34.151433 -118.261726 289 6029ft 108kts
10-Mar-18 17:18 34.160198 -118.296797 280 6049ft 107kts
10-Mar-18 17:19 34.166030 -118.333447 289 5855ft 121kts
10-Mar-18 17:20 34.179010 -118.368258 297 5885ft 109kts
10-Mar-18 17:21 34.193729 -118.400316 296 5922ft 108kts
10-Mar-18 17:22 34.204256 -118.434631 283 5941ft 109kts
10-Mar-18 17:23 34.211399 -118.470180 281 5968ft 108kts
10-Mar-18 17:24 34.222648 -118.504062 290 5341ft 111kts
10-Mar-18 17:25 34.226762 -118.540193 268 4716ft 108kts
10-Mar-18 17:26 34.224207 -118.576263 260 4123ft 107kts
10-Mar-18 17:27 34.217362 -118.610839 247 3664ft 98kts
10-Mar-18 17:28 34.204669 -118.639279 236 3664ft 103kts
10-Mar-18 17:29 34.205581 -118.670784 329 3642ft 109kts
10-Mar-18 17:30 34.224202 -118.650040 71 3707ft 94kts
10-Mar-18 17:31 34.229193 -118.616693 83 3655ft 100kts
10-Mar-18 17:32 34.230521 -118.582545 89 3674ft 98kts
10-Mar-18 17:33 34.223522 -118.550306 110 3065ft 84kts
10-Mar-18 17:34 34.224802 -118.520218 67 3129ft 84kts
10-Mar-18 17:35 34.230272 -118.489321 82 2907ft 95kts
10-Mar-18 17:36 34.242712 -118.461466 47 1773ft 96kts
10-Mar-18 17:37 34.255137 -118.436564 77 1862ft 89kts
10-Mar-18 17:38 34.272922 -118.427155 32 1255ft 84kts
10-Mar-18 17:39 34.261344 -118.416706 101 1051ft 72kts
10-Mar-18 17:40 34.257967 -118.411436 54 1007ft 0kts
10-Mar-18 17:41 34.258006 -118.411413 11 1007ft 3kts

Navigation Log

Ident Type
Flight plan parsing failed, navigation log unavailable